Aérodrome :
LOGIN :

S'inscrire | Disclaimer

   EN    FR    IT 

 










Légende :    VFR   VFR Marginal   IFR   IFR Intensif   IFR Très Intensif
Visi : 
Plafond : 
>= 8 km
>= 3000ft
5 à 8 km
1000 à 3000 ft
1500m à 5 km
500 à 1000 ft
800 à 1500m
200 à 500 ft
< 800m
< 200 ft
Symboles :   Orages  Brouillard  Fortes neiges  Fortes précipitations  Vent > 20 kt
SIGMETs :   Divers  Orages  Givrage  Turbulence  Onde Orograph.  Cendres Volcan.






- Altitude de l'aérodrome : 184 ft
- Code IATA : BRU


EBBR - Bruxelles

DERNIER METAR :
  • 301250Z 23014KT 9999 SCT022 BKN028 15/11 Q1020 TEMPO 22015G25KT

METARs EXPIRÉS :
  • 301220Z 23014KT 9999 FEW022 BKN035 15/11 Q1020 TEMPO BKN012
  • 301150Z 23015KT 9999 FEW022 BKN035 15/11 Q1020 TEMPO BKN012
  • 301120Z 23015KT 9999 FEW022 BKN035 15/11 Q1020 TEMPO BKN012
  • 301050Z 23016KT 9999 FEW021 BKN038 15/11 Q1020 TEMPO BKN012
  • 301020Z 23016KT 9999 FEW018 BKN038 15/11 Q1020 TEMPO BKN012
  • 300950Z 23016KT 9999 FEW018 BKN035 15/11 Q1020 TEMPO BKN012

TAF TAF EBBR
Valide du 30 à 12h jusqu'au 31 à 18h UTC


301104Z 3012/3118 22012KT 9999 FEW020 BKN030
TEMPO 3117/3118 18015G25KT 4000 RA SHRA



MET'MAP, la Météo Aéronautique d'un coup d'oeil ! - Copyright ORBIFLY Décembre 2007 - Disclaimer

ORBIFLY MET'MAP TEAM :

Programmation & Développement : Alexandra Zaïnal
Sur une idée originale de : Baudouin d'Aumeries
Assistance à la programmation : Marc-Olivier Méhu
Soutien technique & logistique : Manuel Goepfert

Contact : metmap@orbifly.com




SOURCES & CREDITS :

   NOAA